createdAt,value
2023-05-22T00:00:31.811Z,15.89
2023-05-22T00:02:58.797Z,15.89
2023-05-22T00:05:25.506Z,15.80
2023-05-22T00:07:52.012Z,15.72
2023-05-22T00:10:18.785Z,15.67
2023-05-22T00:12:45.529Z,15.64
2023-05-22T00:15:12.219Z,15.55
2023-05-22T00:17:39.044Z,15.59
2023-05-22T00:20:10.886Z,15.65
2023-05-22T00:22:37.919Z,15.71
2023-05-22T00:25:05.961Z,15.78
2023-05-22T00:27:33.818Z,15.82
2023-05-22T00:30:01.048Z,15.87
2023-05-22T00:32:27.790Z,15.87
2023-05-22T00:34:54.326Z,15.91
2023-05-22T00:37:20.922Z,15.89
2023-05-22T00:39:47.703Z,15.78
2023-05-22T00:42:14.236Z,15.69
2023-05-22T00:44:41.832Z,15.70
2023-05-22T00:47:08.396Z,15.57
2023-05-22T00:49:34.937Z,15.57
2023-05-22T00:52:02.590Z,15.38
2023-05-22T00:54:37.938Z,15.41
2023-05-22T00:57:09.710Z,15.30
2023-05-22T00:59:36.444Z,15.34
2023-05-22T01:02:06.348Z,15.20
2023-05-22T01:04:33.321Z,15.26
2023-05-22T01:07:03.008Z,15.26
2023-05-22T01:09:30.227Z,15.24
2023-05-22T01:12:31.930Z,15.09
2023-05-22T01:15:31.901Z,15.00
2023-05-22T01:18:27.507Z,14.90
2023-05-22T01:21:32.865Z,14.88
2023-05-22T01:24:43.384Z,14.79
2023-05-22T01:27:35.159Z,14.82
2023-05-22T01:30:34.813Z,14.80
2023-05-22T01:33:04.290Z,14.74
2023-05-22T01:35:34.098Z,14.76
2023-05-22T01:38:03.267Z,14.76
2023-05-22T01:40:31.774Z,14.79
2023-05-22T01:42:58.727Z,14.78
2023-05-22T01:45:26.045Z,14.76
2023-05-22T01:47:52.627Z,14.72
2023-05-22T01:50:21.109Z,14.72
2023-05-22T01:52:58.970Z,14.56
2023-05-22T01:55:40.361Z,14.58
2023-05-22T01:58:42.791Z,14.63
2023-05-22T02:01:14.107Z,14.76
2023-05-22T02:03:42.741Z,14.63
2023-05-22T02:06:13.739Z,14.49
2023-05-22T02:08:42.883Z,14.43
2023-05-22T02:11:13.650Z,14.38
2023-05-22T02:13:40.483Z,14.34
2023-05-22T02:16:18.015Z,14.28
2023-05-22T02:18:47.968Z,14.33
2023-05-22T02:21:22.156Z,14.26
2023-05-22T02:23:50.175Z,14.27
2023-05-22T02:26:16.687Z,14.18
2023-05-22T02:28:43.844Z,14.12
2023-05-22T02:31:10.632Z,14.07
2023-05-22T02:33:37.201Z,14.02
2023-05-22T02:36:03.992Z,14.10
2023-05-22T02:38:30.594Z,14.04
2023-05-22T02:40:57.126Z,14.11
2023-05-22T02:43:23.603Z,14.07
2023-05-22T02:45:58.668Z,13.96
2023-05-22T02:48:25.232Z,13.97
2023-05-22T02:50:54.692Z,13.96
2023-05-22T02:53:21.872Z,13.98
2023-05-22T02:55:48.449Z,13.95
2023-05-22T02:58:15.021Z,13.92
2023-05-22T03:00:41.981Z,13.98
2023-05-22T03:03:17.996Z,14.06
2023-05-22T03:05:45.984Z,14.06
2023-05-22T03:08:12.575Z,13.99
2023-05-22T03:10:52.922Z,13.86
2023-05-22T03:13:19.676Z,13.94
2023-05-22T03:15:46.308Z,14.01
2023-05-22T03:18:22.385Z,14.08
2023-05-22T03:20:49.143Z,13.99
2023-05-22T03:23:15.733Z,13.79
2023-05-22T03:25:48.050Z,13.88
2023-05-22T03:28:27.075Z,13.93
2023-05-22T03:30:53.622Z,13.86
2023-05-22T03:33:20.252Z,14.02
2023-05-22T03:35:46.733Z,14.08
2023-05-22T03:38:13.408Z,14.14
2023-05-22T03:40:40.215Z,14.21
2023-05-22T03:43:06.871Z,14.25
2023-05-22T03:45:33.552Z,14.28
2023-05-22T03:48:00.207Z,14.28
2023-05-22T03:50:27.835Z,14.23
2023-05-22T03:52:54.317Z,14.18
2023-05-22T03:55:21.372Z,13.99
2023-05-22T03:57:47.860Z,13.88
2023-05-22T04:00:16.919Z,13.93
2023-05-22T04:02:45.289Z,13.99
2023-05-22T04:05:12.226Z,14.05
2023-05-22T04:07:41.852Z,14.09
2023-05-22T04:10:09.042Z,14.13
2023-05-22T04:12:35.567Z,14.04
2023-05-22T04:15:02.256Z,14.11
2023-05-22T04:17:33.429Z,14.08
2023-05-22T04:20:03.292Z,13.93
2023-05-22T04:22:30.822Z,13.82
2023-05-22T04:24:57.557Z,13.84
2023-05-22T04:27:24.849Z,13.88
2023-05-22T04:29:51.401Z,13.82
2023-05-22T04:32:32.333Z,13.87
2023-05-22T04:35:00.526Z,13.99
2023-05-22T04:37:28.590Z,14.08
2023-05-22T04:39:58.181Z,14.09
2023-05-22T04:42:25.312Z,14.09
2023-05-22T04:44:57.961Z,14.10
2023-05-22T04:47:24.615Z,14.11
2023-05-22T04:49:51.703Z,14.25
2023-05-22T04:52:18.245Z,14.33
2023-05-22T04:54:46.645Z,14.42
2023-05-22T04:57:13.216Z,14.50
2023-05-22T04:59:40.147Z,14.59
2023-05-22T05:02:10.966Z,14.68
2023-05-22T05:04:37.819Z,14.71
2023-05-22T05:07:05.990Z,14.78
2023-05-22T05:09:33.164Z,14.85
2023-05-22T05:11:59.669Z,14.89
2023-05-22T05:14:26.217Z,14.91
2023-05-22T05:16:52.996Z,14.96
2023-05-22T05:19:26.337Z,15.01
2023-05-22T05:21:52.945Z,15.07
2023-05-22T05:24:20.967Z,15.15
2023-05-22T05:26:47.569Z,15.16
2023-05-22T05:29:14.078Z,15.17
2023-05-22T05:31:40.755Z,15.16
2023-05-22T05:34:07.623Z,15.24
2023-05-22T05:36:34.341Z,15.31
2023-05-22T05:39:00.974Z,15.36
2023-05-22T05:41:28.295Z,15.40
2023-05-22T05:43:57.341Z,15.43
2023-05-22T05:46:23.929Z,15.38
2023-05-22T05:48:50.507Z,15.33
2023-05-22T05:51:17.043Z,15.43
2023-05-22T05:53:43.543Z,15.49
2023-05-22T05:56:10.257Z,15.43
2023-05-22T05:58:37.165Z,15.43
2023-05-22T06:01:04.137Z,15.51
2023-05-22T06:03:31.239Z,15.60
2023-05-22T06:05:58.179Z,15.57
2023-05-22T06:08:24.854Z,15.57
2023-05-22T06:10:59.559Z,15.69
2023-05-22T06:13:26.052Z,15.77
2023-05-22T06:15:52.726Z,15.82
2023-05-22T06:18:19.393Z,15.82
2023-05-22T06:20:45.931Z,15.93
2023-05-22T06:23:12.507Z,16.06
2023-05-22T06:25:39.896Z,16.09
2023-05-22T06:28:06.623Z,16.04
2023-05-22T06:30:40.378Z,16.14
2023-05-22T06:33:07.863Z,16.29
2023-05-22T06:35:34.557Z,16.44
2023-05-22T06:38:01.193Z,16.50
2023-05-22T06:40:27.955Z,16.59
2023-05-22T06:42:59.103Z,16.62
2023-05-22T06:45:25.812Z,16.72
2023-05-22T06:47:54.049Z,16.88
2023-05-22T06:50:22.401Z,17.02
2023-05-22T06:52:49.292Z,17.14
2023-05-22T06:55:16.385Z,17.26
2023-05-22T06:57:42.923Z,17.40
2023-05-22T07:00:14.878Z,17.53
2023-05-22T07:02:41.512Z,17.65
2023-05-22T07:05:09.116Z,17.77
2023-05-22T07:07:35.923Z,17.90
2023-05-22T07:10:02.557Z,18.00
2023-05-22T07:12:29.485Z,18.09
2023-05-22T07:14:57.061Z,18.16
2023-05-22T07:17:23.615Z,18.21
2023-05-22T07:19:52.453Z,18.33
2023-05-22T07:22:25.122Z,18.42
2023-05-22T07:24:51.712Z,18.47
2023-05-22T07:27:20.763Z,18.53
2023-05-22T07:29:50.535Z,18.66
2023-05-22T07:32:17.094Z,18.80
2023-05-22T07:34:46.471Z,18.92
2023-05-22T07:37:14.250Z,19.03
2023-05-22T07:39:40.893Z,19.17
2023-05-22T07:42:08.113Z,19.11
2023-05-22T07:44:34.747Z,19.28
2023-05-22T07:47:01.261Z,19.42
2023-05-22T07:49:30.876Z,19.60
2023-05-22T07:51:57.424Z,19.70
2023-05-22T07:54:24.194Z,19.84
2023-05-22T07:56:52.090Z,19.92
2023-05-22T07:59:19.697Z,19.91
2023-05-22T08:01:46.348Z,19.96
2023-05-22T08:04:13.194Z,20.11
2023-05-22T08:06:39.979Z,20.22
2023-05-22T08:09:06.621Z,20.35
2023-05-22T08:11:34.116Z,20.50
2023-05-22T08:14:03.711Z,20.76
2023-05-22T08:16:30.967Z,20.66
2023-05-22T08:18:57.607Z,20.82
2023-05-22T08:21:24.176Z,20.92
2023-05-22T08:23:50.978Z,21.04
2023-05-22T08:26:17.564Z,21.14
2023-05-22T08:28:44.480Z,21.23
2023-05-22T08:31:11.944Z,21.30
2023-05-22T08:33:39.796Z,21.37
2023-05-22T08:36:06.843Z,21.58
2023-05-22T08:38:33.683Z,21.67
2023-05-22T08:41:00.290Z,21.71
2023-05-22T08:43:28.601Z,21.69
2023-05-22T08:46:04.357Z,21.68
2023-05-22T08:48:32.995Z,21.85
2023-05-22T08:51:05.653Z,21.86
2023-05-22T08:53:36.534Z,21.95
2023-05-22T08:56:08.809Z,21.75
2023-05-22T08:58:37.874Z,22.01
2023-05-22T09:01:06.767Z,22.18
2023-05-22T09:03:35.001Z,22.21
2023-05-22T09:06:04.552Z,22.25
2023-05-22T09:08:31.098Z,22.37
2023-05-22T09:10:57.803Z,22.50
2023-05-22T09:13:30.878Z,22.59
2023-05-22T09:16:15.042Z,22.54
2023-05-22T09:18:42.588Z,22.79
2023-05-22T09:21:25.964Z,22.90
2023-05-22T09:24:01.479Z,22.89
2023-05-22T09:26:29.564Z,23.03
2023-05-22T09:29:02.173Z,23.07
2023-05-22T09:31:29.730Z,22.92
2023-05-22T09:33:56.700Z,23.04
2023-05-22T09:36:33.027Z,23.13
2023-05-22T09:39:04.752Z,23.25
2023-05-22T09:41:36.753Z,23.29
2023-05-22T09:44:13.592Z,23.39
2023-05-22T09:46:47.663Z,23.66
2023-05-22T09:49:16.755Z,23.78
2023-05-22T09:51:48.332Z,23.79
2023-05-22T09:54:17.349Z,23.98
2023-05-22T09:56:48.492Z,24.00
2023-05-22T09:59:23.815Z,24.04
2023-05-22T10:01:50.741Z,24.11
2023-05-22T10:04:18.891Z,24.27
2023-05-22T10:06:53.685Z,24.41
2023-05-22T10:09:24.877Z,24.44
2023-05-22T10:11:56.523Z,24.29
2023-05-22T10:14:24.345Z,24.35
2023-05-22T10:16:51.493Z,24.44
2023-05-22T10:19:18.552Z,24.37
2023-05-22T10:21:47.353Z,24.40
2023-05-22T10:24:14.739Z,24.52
2023-05-22T10:26:44.081Z,24.60
2023-05-22T10:29:22.098Z,24.80
2023-05-22T10:32:19.161Z,24.91
2023-05-22T10:35:00.947Z,24.51
2023-05-22T10:37:47.389Z,24.60
2023-05-22T10:40:28.695Z,24.69
2023-05-22T10:43:06.542Z,24.59
2023-05-22T10:45:33.556Z,24.82
2023-05-22T10:48:12.423Z,24.91
2023-05-22T10:50:40.972Z,24.97
2023-05-22T10:53:31.276Z,25.01
2023-05-22T10:56:02.954Z,25.09
2023-05-22T10:58:38.885Z,25.17
2023-05-22T11:01:20.375Z,25.31
2023-05-22T11:04:09.311Z,25.43
2023-05-22T11:06:49.966Z,25.72
2023-05-22T11:09:19.220Z,25.89
2023-05-22T11:11:47.432Z,25.85
2023-05-22T11:14:18.402Z,25.82
2023-05-22T11:16:45.048Z,25.89
2023-05-22T11:19:22.870Z,25.99
2023-05-22T11:21:50.656Z,26.13
2023-05-22T11:24:18.084Z,26.16
2023-05-22T11:27:01.267Z,26.33
2023-05-22T11:29:29.430Z,26.75
2023-05-22T11:31:58.478Z,26.61
2023-05-22T11:34:28.859Z,26.42
2023-05-22T11:37:01.940Z,26.48
2023-05-22T11:39:28.526Z,26.42
2023-05-22T11:41:55.323Z,26.36
2023-05-22T11:44:21.892Z,26.30
2023-05-22T11:46:48.575Z,26.20
2023-05-22T11:49:15.217Z,26.23
2023-05-22T11:51:42.180Z,25.91
2023-05-22T11:54:08.747Z,26.04
2023-05-22T11:56:35.263Z,26.03
2023-05-22T11:59:02.087Z,25.92
2023-05-22T12:01:28.665Z,25.78
2023-05-22T12:03:55.483Z,25.62
2023-05-22T12:06:22.420Z,25.63
2023-05-22T12:08:49.098Z,25.63
2023-05-22T12:11:16.614Z,25.70
2023-05-22T12:13:43.431Z,25.78
2023-05-22T12:16:24.148Z,25.96
2023-05-22T12:18:54.386Z,26.11
2023-05-22T12:21:22.117Z,26.20
2023-05-22T12:23:51.266Z,26.44
2023-05-22T12:26:18.182Z,26.36
2023-05-22T12:28:44.814Z,26.36
2023-05-22T12:31:11.468Z,26.50
2023-05-22T12:33:40.495Z,26.49
2023-05-22T12:36:08.035Z,26.55
2023-05-22T12:38:35.645Z,26.81
2023-05-22T12:41:02.293Z,26.81
2023-05-22T12:43:28.902Z,26.94
2023-05-22T12:45:55.619Z,26.77
2023-05-22T12:48:22.964Z,26.95
2023-05-22T12:50:49.510Z,26.73
2023-05-22T12:53:16.037Z,26.68
2023-05-22T12:55:43.407Z,26.52
2023-05-22T12:58:10.040Z,26.45
2023-05-22T13:00:36.639Z,26.38
2023-05-22T13:03:04.243Z,26.51
2023-05-22T13:05:31.073Z,26.95
2023-05-22T13:07:57.744Z,26.71
2023-05-22T13:10:24.360Z,26.54
2023-05-22T13:12:51.599Z,26.40
2023-05-22T13:15:18.716Z,26.55
2023-05-22T13:17:45.810Z,26.74
2023-05-22T13:20:13.408Z,26.56
2023-05-22T13:22:41.714Z,26.85
2023-05-22T13:25:08.883Z,26.83
2023-05-22T13:27:35.393Z,26.89
2023-05-22T13:30:02.002Z,26.72
2023-05-22T13:32:28.593Z,26.89
2023-05-22T13:34:55.193Z,27.12
2023-05-22T13:37:21.913Z,27.38
2023-05-22T13:39:48.498Z,27.74
2023-05-22T13:42:15.492Z,28.13
2023-05-22T13:44:42.121Z,28.03
2023-05-22T13:47:08.828Z,27.90
2023-05-22T13:49:35.472Z,28.13
2023-05-22T13:52:02.011Z,28.32
2023-05-22T13:54:28.616Z,28.04
2023-05-22T13:56:57.584Z,27.87
2023-05-22T13:59:24.256Z,27.74
2023-05-22T14:01:50.797Z,27.50
2023-05-22T14:04:17.451Z,27.53
2023-05-22T14:06:44.005Z,27.17
2023-05-22T14:09:10.698Z,27.09
2023-05-22T14:11:37.325Z,27.04
2023-05-22T14:14:03.961Z,26.99
2023-05-22T14:16:30.598Z,26.58
2023-05-22T14:18:57.314Z,26.64
2023-05-22T14:21:23.891Z,26.21
2023-05-22T14:23:50.541Z,25.87
2023-05-22T14:26:17.299Z,25.61
2023-05-22T14:28:44.094Z,25.37
2023-05-22T14:31:10.881Z,25.23
2023-05-22T14:33:37.512Z,25.20
2023-05-22T14:36:04.472Z,25.19
2023-05-22T14:38:33.726Z,25.09
2023-05-22T14:41:03.470Z,25.08
2023-05-22T14:43:30.169Z,25.02
2023-05-22T14:45:57.991Z,25.06
2023-05-22T14:48:26.273Z,25.17
2023-05-22T14:50:55.806Z,25.23
2023-05-22T14:53:23.189Z,25.29
2023-05-22T14:55:49.763Z,25.23
2023-05-22T14:58:16.347Z,25.17
2023-05-22T15:00:42.973Z,25.20
2023-05-22T15:03:09.610Z,24.95
2023-05-22T15:05:36.329Z,24.83
2023-05-22T15:08:02.913Z,24.83
2023-05-22T15:10:29.618Z,24.77
2023-05-22T15:12:56.512Z,24.73
2023-05-22T15:15:23.132Z,24.75
2023-05-22T15:17:49.762Z,24.75
2023-05-22T15:20:16.460Z,24.81
2023-05-22T15:22:42.988Z,24.96
2023-05-22T15:25:12.578Z,24.95
2023-05-22T15:27:39.656Z,24.89
2023-05-22T15:30:09.567Z,25.11
2023-05-22T15:32:37.330Z,25.27
2023-05-22T15:35:05.613Z,25.38
2023-05-22T15:37:33.702Z,25.46
2023-05-22T15:40:01.668Z,25.57
2023-05-22T15:42:28.617Z,25.64
2023-05-22T15:44:55.540Z,25.64
2023-05-22T15:47:22.171Z,25.59
2023-05-22T15:49:48.720Z,25.63
2023-05-22T15:52:15.585Z,25.77
2023-05-22T15:54:42.196Z,25.92
2023-05-22T15:57:08.712Z,25.87
2023-05-22T15:59:35.246Z,25.93
2023-05-22T16:02:01.778Z,25.95
2023-05-22T16:04:28.318Z,25.75
2023-05-22T16:06:54.875Z,25.84
2023-05-22T16:09:21.479Z,25.75
2023-05-22T16:11:48.042Z,25.63
2023-05-22T16:14:14.611Z,25.67
2023-05-22T16:16:41.190Z,25.78
2023-05-22T16:19:08.071Z,25.90
2023-05-22T16:21:34.679Z,25.68
2023-05-22T16:24:01.253Z,25.74
2023-05-22T16:26:27.790Z,25.84
2023-05-22T16:28:54.283Z,25.85
2023-05-22T16:31:20.850Z,25.67
2023-05-22T16:33:47.422Z,25.72
2023-05-22T16:36:13.939Z,25.58
2023-05-22T16:38:41.975Z,25.72
2023-05-22T16:41:08.538Z,25.72
2023-05-22T16:43:36.645Z,25.80
2023-05-22T16:46:03.194Z,25.80
2023-05-22T16:48:29.777Z,25.76
2023-05-22T16:50:56.297Z,25.57
2023-05-22T16:53:22.841Z,25.36
2023-05-22T16:55:49.368Z,25.21
2023-05-22T16:58:15.910Z,25.08
2023-05-22T17:00:42.919Z,25.03
2023-05-22T17:03:11.627Z,25.04
2023-05-22T17:05:38.769Z,24.96
2023-05-22T17:08:06.383Z,24.96
2023-05-22T17:10:32.928Z,24.86
2023-05-22T17:12:59.491Z,24.80
2023-05-22T17:15:26.120Z,24.79
2023-05-22T17:17:52.705Z,24.65
2023-05-22T17:20:22.961Z,24.66
2023-05-22T17:22:50.092Z,24.61
2023-05-22T17:25:17.012Z,24.62
2023-05-22T17:27:43.921Z,24.41
2023-05-22T17:30:11.326Z,24.33
2023-05-22T17:32:38.049Z,24.27
2023-05-22T17:35:06.585Z,24.34
2023-05-22T17:37:33.574Z,24.26
2023-05-22T17:40:00.259Z,23.98
2023-05-22T17:42:26.969Z,23.93
2023-05-22T17:44:53.507Z,24.03
2023-05-22T17:47:20.080Z,24.05
2023-05-22T17:49:46.780Z,24.16
2023-05-22T17:52:14.647Z,24.23
2023-05-22T17:54:41.279Z,24.16
2023-05-22T17:57:07.957Z,23.84
2023-05-22T17:59:34.465Z,23.77
2023-05-22T18:02:01.253Z,23.72
2023-05-22T18:04:27.990Z,23.69
2023-05-22T18:06:54.529Z,23.69
2023-05-22T18:09:21.149Z,23.71
2023-05-22T18:11:49.956Z,23.53
2023-05-22T18:14:16.528Z,23.36
2023-05-22T18:16:43.124Z,23.32
2023-05-22T18:19:09.808Z,23.34
2023-05-22T18:21:39.639Z,23.26
2023-05-22T18:24:06.355Z,23.34
2023-05-22T18:26:32.947Z,23.03
2023-05-22T18:28:59.579Z,22.89
2023-05-22T18:31:26.302Z,22.82
2023-05-22T18:33:52.933Z,22.67
2023-05-22T18:36:19.574Z,22.64
2023-05-22T18:38:46.200Z,22.63
2023-05-22T18:41:12.737Z,22.60
2023-05-22T18:43:39.346Z,22.54
2023-05-22T18:46:05.873Z,22.36
2023-05-22T18:48:33.105Z,22.25
2023-05-22T18:51:00.150Z,22.20
2023-05-22T18:53:27.273Z,22.18
2023-05-22T18:55:54.067Z,22.14
2023-05-22T18:58:21.027Z,22.11
2023-05-22T19:00:48.214Z,22.02
2023-05-22T19:03:15.057Z,21.96
2023-05-22T19:05:41.665Z,21.87
2023-05-22T19:08:08.365Z,21.73
2023-05-22T19:10:34.914Z,21.81
2023-05-22T19:13:01.514Z,21.78
2023-05-22T19:15:28.106Z,21.79
2023-05-22T19:17:54.769Z,21.78
2023-05-22T19:20:22.896Z,21.81
2023-05-22T19:22:50.930Z,21.73
2023-05-22T19:25:17.905Z,21.69
2023-05-22T19:27:44.815Z,21.56
2023-05-22T19:30:14.884Z,21.52
2023-05-22T19:32:41.645Z,21.33
2023-05-22T19:35:08.844Z,21.24
2023-05-22T19:37:35.427Z,21.17
2023-05-22T19:40:01.986Z,20.99
2023-05-22T19:42:28.483Z,20.85
2023-05-22T19:44:55.264Z,20.85
2023-05-22T19:47:21.809Z,20.91
2023-05-22T19:49:48.401Z,20.91
2023-05-22T19:52:14.914Z,20.57
2023-05-22T19:54:41.590Z,20.73
2023-05-22T19:57:08.156Z,20.61
2023-05-22T19:59:36.653Z,20.40
2023-05-22T20:02:03.855Z,20.45
2023-05-22T20:04:31.520Z,20.53
2023-05-22T20:07:02.130Z,20.54
2023-05-22T20:09:28.775Z,20.45
2023-05-22T20:11:55.319Z,20.46
2023-05-22T20:14:21.887Z,20.38
2023-05-22T20:16:48.499Z,20.26
2023-05-22T20:19:15.307Z,20.18
2023-05-22T20:21:41.907Z,20.08
2023-05-22T20:24:24.996Z,19.98
2023-05-22T20:26:52.354Z,19.93
2023-05-22T20:29:19.247Z,19.94
2023-05-22T20:31:46.500Z,19.95
2023-05-22T20:34:13.138Z,19.90
2023-05-22T20:36:42.324Z,19.82
2023-05-22T20:39:11.636Z,19.77
2023-05-22T20:41:38.492Z,19.64
2023-05-22T20:44:05.180Z,19.47
2023-05-22T20:46:32.121Z,19.43
2023-05-22T20:48:59.428Z,19.25
2023-05-22T20:51:32.336Z,18.99
2023-05-22T20:54:00.144Z,18.87
2023-05-22T20:56:27.189Z,18.77
2023-05-22T20:58:54.907Z,18.86
2023-05-22T21:01:24.999Z,18.80
2023-05-22T21:03:56.203Z,18.73
2023-05-22T21:06:23.287Z,18.75
2023-05-22T21:08:51.374Z,18.80
2023-05-22T21:11:19.804Z,18.78
2023-05-22T21:13:46.347Z,18.73
2023-05-22T21:16:12.949Z,18.63
2023-05-22T21:18:39.644Z,18.52
2023-05-22T21:21:06.181Z,18.45
2023-05-22T21:23:32.660Z,18.43
2023-05-22T21:25:59.251Z,18.56
2023-05-22T21:28:25.872Z,18.70
2023-05-22T21:30:52.394Z,18.80
2023-05-22T21:33:18.964Z,18.91
2023-05-22T21:35:45.586Z,18.93
2023-05-22T21:38:12.264Z,18.95
2023-05-22T21:40:40.670Z,18.93
2023-05-22T21:43:07.401Z,18.85
2023-05-22T21:45:34.212Z,18.84
2023-05-22T21:48:01.012Z,18.82
2023-05-22T21:50:27.590Z,18.80
2023-05-22T21:52:54.093Z,18.75
2023-05-22T21:55:21.236Z,18.69
2023-05-22T21:57:47.786Z,18.66
2023-05-22T22:00:15.311Z,18.64
2023-05-22T22:02:41.952Z,18.48
2023-05-22T22:05:08.939Z,18.44
2023-05-22T22:07:35.491Z,18.46
2023-05-22T22:10:02.038Z,18.47
2023-05-22T22:12:28.557Z,18.43
2023-05-22T22:14:57.653Z,18.39
2023-05-22T22:17:24.258Z,18.36
2023-05-22T22:19:53.357Z,18.36
2023-05-22T22:22:22.393Z,18.29
2023-05-22T22:24:48.902Z,18.23
2023-05-22T22:27:15.549Z,18.17
2023-05-22T22:29:43.508Z,18.15
2023-05-22T22:32:10.096Z,18.13
2023-05-22T22:34:37.568Z,18.07
2023-05-22T22:37:05.869Z,18.02
2023-05-22T22:39:32.440Z,17.98
2023-05-22T22:42:04.859Z,17.90
2023-05-22T22:44:32.294Z,17.79
2023-05-22T22:46:59.052Z,17.76
2023-05-22T22:49:25.631Z,17.76
2023-05-22T22:51:52.413Z,17.76
2023-05-22T22:54:18.974Z,17.74
2023-05-22T22:56:49.658Z,17.71
2023-05-22T22:59:17.020Z,17.71
2023-05-22T23:01:43.794Z,17.62
2023-05-22T23:04:10.561Z,17.49
2023-05-22T23:06:37.189Z,17.47
2023-05-22T23:09:03.964Z,17.45
2023-05-22T23:11:37.169Z,17.35
2023-05-22T23:14:08.808Z,17.20
2023-05-22T23:16:36.970Z,17.21
2023-05-22T23:19:08.699Z,17.02
2023-05-22T23:21:35.942Z,17.02
2023-05-22T23:24:04.751Z,17.00
2023-05-22T23:26:32.056Z,16.93
2023-05-22T23:28:59.844Z,16.89
2023-05-22T23:31:29.989Z,16.73
2023-05-22T23:33:57.573Z,16.59
2023-05-22T23:36:24.624Z,16.49
2023-05-22T23:38:51.502Z,16.48
2023-05-22T23:41:18.553Z,16.48
2023-05-22T23:43:46.113Z,16.40
2023-05-22T23:46:13.932Z,16.32
2023-05-22T23:48:42.019Z,16.29
2023-05-22T23:51:09.634Z,16.20
2023-05-22T23:53:36.883Z,16.21
2023-05-22T23:56:04.648Z,16.21
2023-05-22T23:58:32.036Z,16.08
